Time;durP1;ratioP1;P1;durP2;ratioP2;P2;SDS_P1;SDS_P2;PMS_P1;PMS_P2;Temp;Humidity;BMP_temperature;BMP_pressure;BME280_temperature;BME280_humidity;BME280_pressure;Samples;Min_cycle;Max_cycle;Signal;HPM_P1;HPM_P2
2023/01/18 00:01:13;;;;;;;3.40;2.30;;;;;;;;;;6215095;23;20572;-71
2023/01/18 00:03:38;;;;;;;4.20;2.43;;;;;;;;;;6214814;23;20151;-73
2023/01/18 00:06:05;;;;;;;6.93;2.63;;;;;;;;;;6215905;23;20136;-72
2023/01/18 00:08:31;;;;;;;6.93;2.00;;;;;;;;;;6214957;23;20206;-70
2023/01/18 00:11:03;;;;;;;4.20;2.57;;;;;;;;;;6215484;23;20370;-70
2023/01/18 00:13:29;;;;;;;2.80;2.00;;;;;;;;;;6215095;23;20391;-70
2023/01/18 00:15:59;;;;;;;5.83;2.87;;;;;;;;;;6212798;23;20857;-70
2023/01/18 00:18:25;;;;;;;3.57;2.00;;;;;;;;;;6214657;23;20260;-70
2023/01/18 00:20:50;;;;;;;4.10;2.50;;;;;;;;;;6214073;23;20414;-70
2023/01/18 00:23:15;;;;;;;3.03;2.07;;;;;;;;;;6214694;23;20183;-70
2023/01/18 00:25:41;;;;;;;2.47;1.70;;;;;;;;;;6214036;23;20132;-72
2023/01/18 00:28:06;;;;;;;3.03;2.13;;;;;;;;;;6185921;23;20481;-71
2023/01/18 00:30:31;;;;;;;3.03;1.90;;;;;;;;;;6214145;23;20148;-70
2023/01/18 00:32:57;;;;;;;2.30;1.97;;;;;;;;;;6214421;23;20171;-70
2023/01/18 00:35:23;;;;;;;3.60;1.77;;;;;;;;;;6212595;23;20509;-70
2023/01/18 00:37:50;;;;;;;2.70;2.03;;;;;;;;;;6212145;23;20413;-70
2023/01/18 00:40:16;;;;;;;6.10;2.03;;;;;;;;;;6210046;23;20559;-71
2023/01/18 00:45:25;;;;;;;6.20;2.17;;;;;;;;;;6211418;23;20788;-71
2023/01/18 00:47:51;;;;;;;4.57;2.03;;;;;;;;;;6186549;23;20375;-70
2023/01/18 00:50:18;;;;;;;2.50;2.10;;;;;;;;;;6213829;23;20147;-70
2023/01/18 00:52:45;;;;;;;2.50;1.83;;;;;;;;;;6187898;23;20182;-70
2023/01/18 00:55:11;;;;;;;2.90;2.00;;;;;;;;;;6214641;23;20370;-71
2023/01/18 00:57:36;;;;;;;4.80;2.63;;;;;;;;;;6187710;23;20442;-70
2023/01/18 01:00:02;;;;;;;2.93;2.30;;;;;;;;;;6215654;23;20371;-70
2023/01/18 01:02:27;;;;;;;3.87;2.40;;;;;;;;;;6189134;23;20175;-70
2023/01/18 01:07:41;;;;;;;2.00;1.73;;;;;;;;;;6169910;23;20155;-70
2023/01/18 01:10:09;;;;;;;2.43;2.10;;;;;;;;;;6214614;23;20393;-70
2023/01/18 01:26:15;;;;;;;2.87;2.30;;;;;;;;;;6213370;23;20798;-70
2023/01/18 01:28:41;;;;;;;3.57;2.03;;;;;;;;;;6212577;23;20375;-71
2023/01/18 01:31:08;;;;;;;3.50;2.30;;;;;;;;;;6212695;23;20164;-74
2023/01/18 01:33:34;;;;;;;3.40;2.50;;;;;;;;;;6187719;23;20382;-70
2023/01/18 01:36:00;;;;;;;2.30;1.90;;;;;;;;;;6187305;23;20390;-70
2023/01/18 01:38:26;;;;;;;4.27;2.00;;;;;;;;;;6212825;23;20164;-70
2023/01/18 01:40:55;;;;;;;3.43;1.90;;;;;;;;;;6185712;23;20904;-72
2023/01/18 01:43:36;;;;;;;3.97;2.40;;;;;;;;;;6211971;23;20144;-70
2023/01/18 01:46:01;;;;;;;3.33;2.00;;;;;;;;;;6185755;23;20445;-70
2023/01/18 01:48:27;;;;;;;4.47;2.30;;;;;;;;;;6212492;23;20767;-70
2023/01/18 01:50:52;;;;;;;4.57;2.73;;;;;;;;;;6187126;23;20183;-70
2023/01/18 01:53:18;;;;;;;4.80;2.23;;;;;;;;;;6186999;23;20618;-69
2023/01/18 01:55:43;;;;;;;3.00;2.13;;;;;;;;;;6216028;23;20147;-71
2023/01/18 01:58:12;;;;;;;2.63;2.23;;;;;;;;;;6214146;23;20171;-70
2023/01/18 02:00:37;;;;;;;3.53;2.40;;;;;;;;;;6191468;23;20159;-71
2023/01/18 02:03:04;;;;;;;5.30;2.43;;;;;;;;;;6216912;23;20383;-72
2023/01/18 02:05:30;;;;;;;4.40;2.30;;;;;;;;;;6188640;23;20186;-70
2023/01/18 02:08:00;;;;;;;3.27;2.37;;;;;;;;;;6190270;23;20371;-71
2023/01/18 02:10:25;;;;;;;3.13;2.00;;;;;;;;;;6216143;23;20454;-70
2023/01/18 02:12:53;;;;;;;4.57;2.33;;;;;;;;;;6216167;23;20387;-70
2023/01/18 02:15:20;;;;;;;3.90;2.37;;;;;;;;;;6214723;23;20152;-73
2023/01/18 02:18:05;;;;;;;3.77;2.70;;;;;;;;;;6213603;23;20414;-70
2023/01/18 02:20:50;;;;;;;3.00;2.00;;;;;;;;;;6172479;23;20776;-70
2023/01/18 02:23:31;;;;;;;4.37;2.70;;;;;;;;;;6188901;23;20778;-71
2023/01/18 02:25:59;;;;;;;3.73;2.83;;;;;;;;;;6213949;23;20719;-70
2023/01/18 02:28:45;;;;;;;5.80;2.40;;;;;;;;;;6214441;23;20425;-70
2023/01/18 02:31:10;;;;;;;4.63;2.47;;;;;;;;;;6211115;23;20407;-70
2023/01/18 02:33:42;;;;;;;12.20;3.03;;;;;;;;;;6214243;23;20371;-70
2023/01/18 02:36:10;;;;;;;2.70;2.20;;;;;;;;;;6212451;23;20140;-72
2023/01/18 02:38:44;;;;;;;7.83;2.47;;;;;;;;;;6213537;23;20407;-69
2023/01/18 02:41:13;;;;;;;6.20;2.70;;;;;;;;;;6211035;23;20393;-70
2023/01/18 02:46:34;;;;;;;2.83;2.40;;;;;;;;;;6211524;23;20418;-70
2023/01/18 02:49:04;;;;;;;2.73;2.30;;;;;;;;;;6211498;23;20340;-70
2023/01/18 02:51:29;;;;;;;3.73;2.60;;;;;;;;;;6210592;23;20459;-70
2023/01/18 02:53:56;;;;;;;4.90;2.70;;;;;;;;;;6212528;23;20711;-70
2023/01/18 02:56:26;;;;;;;5.50;2.50;;;;;;;;;;6210675;23;20219;-70
2023/01/18 02:58:52;;;;;;;6.50;2.67;;;;;;;;;;6211298;23;20403;-72
2023/01/18 03:01:21;;;;;;;4.50;2.87;;;;;;;;;;6210192;23;20409;-70
2023/01/18 03:03:47;;;;;;;6.10;2.57;;;;;;;;;;6208861;23;20359;-75
2023/01/18 03:06:13;;;;;;;3.63;2.70;;;;;;;;;;6213320;23;20375;-70
2023/01/18 03:08:41;;;;;;;4.53;2.50;;;;;;;;;;6210952;23;20367;-70
2023/01/18 03:11:09;;;;;;;4.40;2.43;;;;;;;;;;6212518;23;20185;-74
2023/01/18 03:13:53;;;;;;;3.10;2.70;;;;;;;;;;6212334;23;20382;-70
2023/01/18 03:16:29;;;;;;;4.40;2.83;;;;;;;;;;6211877;23;20382;-72
2023/01/18 03:19:01;;;;;;;3.07;2.67;;;;;;;;;;6212709;23;20409;-70
2023/01/18 03:21:32;;;;;;;3.13;2.80;;;;;;;;;;6213306;23;20393;-71
2023/01/18 03:23:59;;;;;;;3.60;2.67;;;;;;;;;;6213839;23;20437;-69
2023/01/18 03:26:25;;;;;;;6.27;3.13;;;;;;;;;;6214209;23;20398;-72
2023/01/18 03:34:32;;;;;;;3.70;2.70;;;;;;;;;;6214161;23;20378;-73
2023/01/18 03:37:00;;;;;;;6.07;3.23;;;;;;;;;;6213796;23;20461;-70
2023/01/18 03:39:31;;;;;;;3.67;3.37;;;;;;;;;;6212991;23;20383;-70
2023/01/18 03:42:10;;;;;;;7.60;3.53;;;;;;;;;;6214168;23;20382;-69
2023/01/18 03:44:41;;;;;;;6.00;3.20;;;;;;;;;;6186426;23;20385;-73
2023/01/18 03:47:06;;;;;;;8.47;3.60;;;;;;;;;;6214568;23;20449;-70
2023/01/18 03:49:33;;;;;;;6.77;3.40;;;;;;;;;;6213751;23;20371;-71
2023/01/18 03:52:14;;;;;;;4.43;2.73;;;;;;;;;;6214101;23;20614;-69
2023/01/18 03:54:46;;;;;;;3.80;3.23;;;;;;;;;;6213960;23;20362;-70
2023/01/18 03:57:23;;;;;;;5.30;3.80;;;;;;;;;;6214411;23;20415;-71
2023/01/18 03:59:48;;;;;;;6.10;3.83;;;;;;;;;;6187383;23;20359;-71
2023/01/18 04:02:18;;;;;;;4.50;3.67;;;;;;;;;;6213953;23;20383;-69
2023/01/18 04:04:44;;;;;;;3.80;3.30;;;;;;;;;;6210791;23;20151;-69
2023/01/18 04:07:09;;;;;;;4.50;3.30;;;;;;;;;;6210650;23;20371;-70
2023/01/18 04:09:34;;;;;;;4.20;3.77;;;;;;;;;;6181793;23;20160;-70
2023/01/18 04:11:59;;;;;;;10.90;3.63;;;;;;;;;;6184946;23;20526;-70
2023/01/18 04:14:25;;;;;;;5.27;4.20;;;;;;;;;;6185679;23;20603;-70
2023/01/18 04:16:50;;;;;;;5.87;4.00;;;;;;;;;;6212581;23;20171;-69
2023/01/18 04:19:16;;;;;;;7.20;4.03;;;;;;;;;;6211830;23;20151;-69
2023/01/18 04:21:41;;;;;;;8.60;4.30;;;;;;;;;;6213870;23;20168;-69
2023/01/18 04:24:06;;;;;;;4.47;4.00;;;;;;;;;;6214040;23;20186;-70
2023/01/18 04:26:40;;;;;;;6.87;4.30;;;;;;;;;;6188208;23;20195;-73
2023/01/18 04:29:06;;;;;;;8.07;4.17;;;;;;;;;;6208477;23;20478;-73
2023/01/18 04:31:31;;;;;;;4.37;3.90;;;;;;;;;;6209620;23;20470;-73
2023/01/18 04:33:56;;;;;;;4.83;3.40;;;;;;;;;;6209025;23;20162;-73
2023/01/18 04:36:22;;;;;;;5.90;4.37;;;;;;;;;;6208586;23;20148;-73
2023/01/18 04:38:51;;;;;;;8.93;4.17;;;;;;;;;;6208198;23;20164;-73
2023/01/18 04:41:16;;;;;;;7.80;4.77;;;;;;;;;;6208736;23;20164;-72
2023/01/18 04:43:41;;;;;;;6.07;4.57;;;;;;;;;;6207370;23;20387;-73
2023/01/18 04:46:07;;;;;;;6.13;4.87;;;;;;;;;;6208937;23;20155;-73
2023/01/18 04:48:32;;;;;;;5.47;4.80;;;;;;;;;;6207460;23;20595;-72
2023/01/18 04:50:57;;;;;;;4.57;3.83;;;;;;;;;;6207789;23;20234;-73
2023/01/18 04:53:25;;;;;;;5.10;4.30;;;;;;;;;;6208416;23;20156;-73
2023/01/18 04:55:50;;;;;;;6.40;4.80;;;;;;;;;;6208623;23;20508;-73
2023/01/18 04:58:15;;;;;;;5.57;4.10;;;;;;;;;;6209631;23;20407;-73
2023/01/18 05:00:41;;;;;;;5.70;4.40;;;;;;;;;;6210913;23;20219;-73
2023/01/18 05:03:07;;;;;;;7.77;5.10;;;;;;;;;;6211127;23;20167;-72
2023/01/18 05:05:32;;;;;;;7.40;5.40;;;;;;;;;;6210147;23;20154;-73
2023/01/18 05:07:58;;;;;;;7.17;5.43;;;;;;;;;;6210567;23;20442;-73
2023/01/18 05:10:23;;;;;;;9.20;7.10;;;;;;;;;;6209877;23;20171;-72
2023/01/18 05:12:48;;;;;;;9.53;6.33;;;;;;;;;;6210168;23;21022;-73
2023/01/18 05:15:13;;;;;;;10.13;6.20;;;;;;;;;;6209675;23;20163;-73
2023/01/18 05:17:39;;;;;;;11.87;7.00;;;;;;;;;;6208696;23;20187;-73
2023/01/18 05:20:10;;;;;;;6.97;5.30;;;;;;;;;;6210915;23;20144;-72
2023/01/18 05:22:36;;;;;;;14.90;6.80;;;;;;;;;;6209669;23;20630;-73
2023/01/18 05:25:01;;;;;;;8.77;6.47;;;;;;;;;;6210949;23;20402;-73
2023/01/18 05:27:26;;;;;;;7.73;6.83;;;;;;;;;;6209740;23;20171;-73
2023/01/18 05:29:52;;;;;;;7.63;6.80;;;;;;;;;;6209932;23;20156;-73
2023/01/18 05:32:17;;;;;;;8.33;6.53;;;;;;;;;;6212783;23;20167;-73
2023/01/18 05:34:43;;;;;;;8.07;6.73;;;;;;;;;;6210547;23;20160;-72
2023/01/18 05:37:08;;;;;;;13.10;7.53;;;;;;;;;;6211689;23;20172;-73
2023/01/18 05:39:34;;;;;;;10.50;6.73;;;;;;;;;;6211528;23;20144;-73
2023/01/18 05:41:59;;;;;;;8.73;7.20;;;;;;;;;;6211776;23;20163;-72
2023/01/18 05:44:24;;;;;;;11.20;7.20;;;;;;;;;;6205904;23;20148;-72
2023/01/18 05:46:49;;;;;;;8.83;7.30;;;;;;;;;;6209375;23;20154;-72
2023/01/18 05:49:20;;;;;;;15.80;7.17;;;;;;;;;;6214048;23;20418;-72
2023/01/18 05:51:45;;;;;;;10.50;7.83;;;;;;;;;;6210697;23;20698;-72
2023/01/18 05:54:12;;;;;;;8.10;7.10;;;;;;;;;;6209959;23;20363;-73
2023/01/18 05:56:37;;;;;;;8.77;7.37;;;;;;;;;;6210975;23;20607;-72
2023/01/18 05:59:02;;;;;;;9.07;7.00;;;;;;;;;;6210157;23;20386;-73
2023/01/18 06:01:28;;;;;;;9.37;7.07;;;;;;;;;;6208829;23;20218;-72
2023/01/18 06:03:53;;;;;;;8.70;7.10;;;;;;;;;;6212294;23;20484;-72
2023/01/18 06:06:18;;;;;;;9.00;6.90;;;;;;;;;;6211237;23;20144;-74
2023/01/18 06:08:43;;;;;;;9.00;7.00;;;;;;;;;;6211550;23;20167;-73
2023/01/18 06:11:09;;;;;;;10.07;6.90;;;;;;;;;;6212100;23;20482;-73
2023/01/18 06:13:34;;;;;;;11.53;6.40;;;;;;;;;;6210935;23;20147;-72
2023/01/18 06:16:00;;;;;;;13.53;6.30;;;;;;;;;;6209818;23;20155;-73
2023/01/18 06:18:27;;;;;;;8.20;5.90;;;;;;;;;;6209651;23;20251;-73
2023/01/18 06:20:53;;;;;;;13.00;6.70;;;;;;;;;;6212073;23;20371;-73
2023/01/18 06:23:19;;;;;;;9.27;6.23;;;;;;;;;;6210599;23;20948;-72
2023/01/18 06:25:44;;;;;;;8.43;6.83;;;;;;;;;;6209542;23;20390;-72
2023/01/18 06:28:09;;;;;;;8.57;7.40;;;;;;;;;;6213502;23;20147;-72
2023/01/18 06:30:34;;;;;;;9.10;6.63;;;;;;;;;;6212499;23;20148;-72
2023/01/18 06:33:05;;;;;;;10.07;6.40;;;;;;;;;;6213093;23;20164;-73
2023/01/18 06:35:30;;;;;;;7.40;5.90;;;;;;;;;;6187490;23;20144;-72
2023/01/18 06:37:56;;;;;;;9.27;6.50;;;;;;;;;;6185865;23;20545;-73
2023/01/18 06:40:21;;;;;;;7.23;6.33;;;;;;;;;;6208689;23;20159;-72
2023/01/18 06:42:47;;;;;;;9.20;6.67;;;;;;;;;;6184283;23;20515;-73
2023/01/18 06:45:12;;;;;;;13.70;6.07;;;;;;;;;;6182233;23;20227;-73
2023/01/18 06:47:37;;;;;;;10.50;5.90;;;;;;;;;;6212105;23;20561;-72
2023/01/18 06:50:03;;;;;;;13.67;6.80;;;;;;;;;;6185109;23;20159;-72
2023/01/18 06:52:28;;;;;;;8.37;6.30;;;;;;;;;;6212664;23;20172;-73
2023/01/18 06:54:53;;;;;;;9.90;5.90;;;;;;;;;;6185601;23;20407;-72
2023/01/18 06:57:19;;;;;;;7.60;6.00;;;;;;;;;;6185153;23;20187;-73
2023/01/18 06:59:44;;;;;;;9.00;5.93;;;;;;;;;;6211369;23;20219;-73
2023/01/18 07:02:12;;;;;;;6.30;5.67;;;;;;;;;;6211743;23;20211;-73
2023/01/18 07:04:42;;;;;;;7.37;5.03;;;;;;;;;;6185018;23;20155;-74
2023/01/18 07:07:08;;;;;;;8.50;5.93;;;;;;;;;;6211046;23;20367;-73
2023/01/18 07:09:33;;;;;;;6.10;5.40;;;;;;;;;;6184418;23;20382;-74
2023/01/18 07:11:58;;;;;;;6.93;5.27;;;;;;;;;;6184094;23;20302;-72
2023/01/18 07:14:24;;;;;;;7.47;5.00;;;;;;;;;;6210409;23;20175;-73
2023/01/18 07:16:49;;;;;;;6.70;5.10;;;;;;;;;;6184712;23;20160;-72
2023/01/18 07:19:15;;;;;;;7.67;5.30;;;;;;;;;;6181398;23;20163;-73
2023/01/18 07:21:40;;;;;;;6.37;4.83;;;;;;;;;;6210244;23;20252;-72
2023/01/18 07:24:05;;;;;;;8.10;5.63;;;;;;;;;;6184904;23;20148;-73
2023/01/18 07:26:31;;;;;;;7.50;5.37;;;;;;;;;;6210569;23;20250;-73
2023/01/18 07:28:56;;;;;;;9.90;5.93;;;;;;;;;;6209442;23;20555;-73
2023/01/18 07:31:24;;;;;;;10.17;4.97;;;;;;;;;;6207161;23;20172;-73
2023/01/18 07:33:49;;;;;;;6.00;4.83;;;;;;;;;;6205355;23;20151;-73
2023/01/18 07:36:15;;;;;;;9.50;5.17;;;;;;;;;;6205570;23;20371;-73
2023/01/18 07:38:40;;;;;;;6.70;4.90;;;;;;;;;;6182962;23;20171;-72
2023/01/18 07:41:10;;;;;;;10.40;5.40;;;;;;;;;;6209582;23;20252;-72
2023/01/18 07:43:36;;;;;;;5.67;5.10;;;;;;;;;;6208209;23;20226;-73
2023/01/18 07:46:02;;;;;;;11.10;6.10;;;;;;;;;;6208800;23;20880;-72
2023/01/18 07:48:28;;;;;;;10.30;6.93;;;;;;;;;;6210170;23;20371;-73
2023/01/18 07:50:57;;;;;;;8.70;5.97;;;;;;;;;;6184255;23;20395;-73
2023/01/18 07:53:23;;;;;;;11.33;7.40;;;;;;;;;;6182999;23;20186;-73
2023/01/18 07:55:49;;;;;;;10.80;7.40;;;;;;;;;;6184023;23;20371;-72
2023/01/18 07:58:17;;;;;;;10.40;7.07;;;;;;;;;;6211824;23;20445;-72
2023/01/18 08:00:45;;;;;;;14.03;7.27;;;;;;;;;;6183341;23;20156;-72
2023/01/18 08:03:13;;;;;;;12.30;7.03;;;;;;;;;;6211948;23;20450;-73
2023/01/18 08:05:39;;;;;;;15.40;8.30;;;;;;;;;;6183731;23;20379;-72
2023/01/18 08:08:06;;;;;;;14.93;8.00;;;;;;;;;;6211106;23;20418;-73
2023/01/18 08:10:32;;;;;;;12.77;6.47;;;;;;;;;;6211290;23;20406;-73
2023/01/18 08:12:57;;;;;;;12.53;7.30;;;;;;;;;;6210482;23;20391;-72
2023/01/18 08:15:23;;;;;;;11.40;8.13;;;;;;;;;;6211918;23;20152;-72
2023/01/18 08:17:50;;;;;;;10.70;7.77;;;;;;;;;;6208990;23;20167;-73
2023/01/18 08:20:15;;;;;;;12.53;7.30;;;;;;;;;;6211636;23;20546;-72
2023/01/18 08:22:40;;;;;;;11.33;7.70;;;;;;;;;;6210388;23;20419;-73
2023/01/18 08:25:06;;;;;;;14.37;8.90;;;;;;;;;;6210809;23;20158;-72
2023/01/18 08:27:31;;;;;;;15.10;10.23;;;;;;;;;;6210513;23;20178;-72
2023/01/18 08:29:56;;;;;;;14.73;9.13;;;;;;;;;;6182008;23;20158;-73
2023/01/18 08:32:22;;;;;;;14.13;7.50;;;;;;;;;;6211290;23;20734;-72
2023/01/18 08:34:47;;;;;;;13.50;8.70;;;;;;;;;;6206743;23;20171;-73
2023/01/18 08:37:12;;;;;;;13.50;8.83;;;;;;;;;;6211757;23;20573;-72
2023/01/18 08:39:38;;;;;;;16.67;9.63;;;;;;;;;;6182172;23;20263;-73
2023/01/18 08:42:03;;;;;;;15.50;8.80;;;;;;;;;;6211743;23;20214;-73
2023/01/18 08:44:29;;;;;;;16.07;9.80;;;;;;;;;;6210947;23;20155;-73
2023/01/18 08:46:54;;;;;;;13.13;8.97;;;;;;;;;;6210758;23;20371;-72
2023/01/18 08:49:19;;;;;;;13.30;9.10;;;;;;;;;;6210520;23;20140;-73
2023/01/18 08:51:45;;;;;;;17.07;9.67;;;;;;;;;;6210513;23;20293;-73
2023/01/18 08:54:10;;;;;;;10.80;8.43;;;;;;;;;;6210648;23;20166;-72
2023/01/18 08:56:35;;;;;;;9.90;7.33;;;;;;;;;;6182164;23;20151;-74
2023/01/18 08:59:01;;;;;;;7.83;5.73;;;;;;;;;;6210431;23;20178;-72
2023/01/18 09:01:29;;;;;;;8.70;6.27;;;;;;;;;;6210198;23;20168;-72
2023/01/18 09:03:55;;;;;;;8.33;5.90;;;;;;;;;;6183711;23;20207;-73
2023/01/18 09:06:20;;;;;;;8.57;6.27;;;;;;;;;;6181534;23;20841;-72
2023/01/18 09:08:48;;;;;;;8.37;5.90;;;;;;;;;;6211291;23;20393;-72
2023/01/18 09:11:14;;;;;;;7.07;5.90;;;;;;;;;;6181415;23;20183;-72
2023/01/18 09:13:40;;;;;;;8.17;5.90;;;;;;;;;;6183206;23;20382;-71
2023/01/18 09:16:06;;;;;;;9.93;6.17;;;;;;;;;;6180538;23;20152;-73
2023/01/18 09:18:32;;;;;;;8.63;5.60;;;;;;;;;;6182291;23;20418;-72
2023/01/18 09:20:57;;;;;;;7.10;5.97;;;;;;;;;;6180577;23;20383;-73
2023/01/18 09:23:23;;;;;;;11.87;5.90;;;;;;;;;;6179657;23;20311;-72
2023/01/18 09:25:58;;;;;;;10.80;5.50;;;;;;;;;;6206368;23;20144;-72
2023/01/18 09:28:24;;;;;;;8.33;6.63;;;;;;;;;;6183461;23;20289;-72
2023/01/18 09:30:49;;;;;;;6.50;5.80;;;;;;;;;;6181677;23;20406;-72
2023/01/18 09:33:14;;;;;;;9.40;5.73;;;;;;;;;;6209330;23;20278;-72
2023/01/18 09:35:39;;;;;;;9.13;6.17;;;;;;;;;;6207459;23;20159;-71
2023/01/18 09:38:06;;;;;;;11.40;6.03;;;;;;;;;;6181601;23;20572;-72
2023/01/18 09:40:42;;;;;;;7.80;5.70;;;;;;;;;;6182577;23;20235;-72
2023/01/18 09:43:13;;;;;;;8.27;5.37;;;;;;;;;;6182238;23;20453;-72
2023/01/18 09:45:43;;;;;;;9.73;6.30;;;;;;;;;;6208888;23;20347;-72
2023/01/18 09:48:12;;;;;;;10.80;6.73;;;;;;;;;;6208959;23;20842;-74
2023/01/18 09:50:40;;;;;;;9.13;5.57;;;;;;;;;;6182930;23;20390;-72
2023/01/18 09:53:10;;;;;;;8.27;6.23;;;;;;;;;;6208770;23;20867;-73
2023/01/18 09:55:58;;;;;;;7.90;5.90;;;;;;;;;;6209819;23;20383;-72
2023/01/18 09:58:26;;;;;;;7.63;6.17;;;;;;;;;;6169845;23;20419;-72
2023/01/18 10:00:54;;;;;;;8.37;6.07;;;;;;;;;;6207856;23;20378;-72
2023/01/18 10:03:27;;;;;;;10.50;6.73;;;;;;;;;;6209437;23;20367;-73
2023/01/18 10:06:07;;;;;;;16.33;6.30;;;;;;;;;;6209409;23;20374;-72
2023/01/18 10:08:34;;;;;;;16.50;8.07;;;;;;;;;;6181846;23;21185;-72
2023/01/18 10:11:06;;;;;;;12.17;6.67;;;;;;;;;;6208339;23;20379;-71
2023/01/18 10:13:38;;;;;;;10.93;6.47;;;;;;;;;;6209625;23;20690;-72
2023/01/18 10:16:13;;;;;;;12.10;7.40;;;;;;;;;;6210936;23;20398;-72
2023/01/18 10:18:44;;;;;;;11.20;7.00;;;;;;;;;;6209695;23;20405;-73
2023/01/18 10:21:14;;;;;;;10.67;6.70;;;;;;;;;;6209650;23;20830;-72
2023/01/18 10:23:46;;;;;;;11.23;6.70;;;;;;;;;;6183957;23;20462;-73
2023/01/18 10:26:19;;;;;;;11.40;7.00;;;;;;;;;;6209769;23;20371;-72
2023/01/18 10:28:50;;;;;;;12.60;8.13;;;;;;;;;;6209955;23;20359;-72
2023/01/18 10:31:22;;;;;;;10.13;6.90;;;;;;;;;;6209227;23;20450;-73
2023/01/18 10:33:50;;;;;;;9.10;6.43;;;;;;;;;;6182667;23;20482;-72
2023/01/18 10:36:18;;;;;;;12.37;6.33;;;;;;;;;;6207989;23;20393;-73
2023/01/18 10:38:44;;;;;;;10.90;7.67;;;;;;;;;;6209681;23;21062;-72
2023/01/18 10:41:16;;;;;;;8.47;6.37;;;;;;;;;;6209634;23;20475;-72
2023/01/18 10:43:43;;;;;;;9.53;6.40;;;;;;;;;;6183289;23;20371;-72
2023/01/18 10:46:13;;;;;;;9.70;5.77;;;;;;;;;;6209507;23;20482;-72
2023/01/18 10:48:44;;;;;;;11.93;6.77;;;;;;;;;;6209066;23;20371;-72
2023/01/18 10:51:22;;;;;;;8.90;6.30;;;;;;;;;;6210989;23;20391;-72
2023/01/18 10:53:47;;;;;;;10.00;6.70;;;;;;;;;;6207558;23;20398;-73
2023/01/18 10:56:15;;;;;;;11.57;7.00;;;;;;;;;;6211655;23;20367;-72
2023/01/18 10:58:50;;;;;;;9.60;6.47;;;;;;;;;;6211088;23;20174;-72
2023/01/18 11:01:15;;;;;;;13.63;6.40;;;;;;;;;;6210066;23;20397;-71
2023/01/18 11:03:51;;;;;;;7.73;5.63;;;;;;;;;;6180163;23;20375;-73
2023/01/18 11:06:19;;;;;;;17.03;6.83;;;;;;;;;;6207850;23;20201;-72
2023/01/18 11:08:45;;;;;;;9.27;6.30;;;;;;;;;;6207972;23;20367;-72
2023/01/18 11:12:32;;;;;;;7.80;5.60;;;;;;;;;;6209147;23;20784;-73
2023/01/18 11:14:30;;;;;;;13.27;5.33;;;;;;;;;;6206785;23;20170;-72
2023/01/18 11:17:01;;;;;;;10.10;6.10;;;;;;;;;;6204042;23;20389;-72
2023/01/18 11:19:27;;;;;;;10.03;6.03;;;;;;;;;;6205733;23;20376;-72
2023/01/18 11:21:53;;;;;;;8.07;5.70;;;;;;;;;;6181594;23;20399;-73
2023/01/18 11:24:31;;;;;;;6.30;5.03;;;;;;;;;;6182327;23;20382;-73
2023/01/18 11:26:56;;;;;;;9.43;6.07;;;;;;;;;;6208468;23;20417;-72
2023/01/18 11:29:23;;;;;;;9.17;5.77;;;;;;;;;;6181512;23;20387;-73
2023/01/18 11:31:49;;;;;;;9.43;6.30;;;;;;;;;;6182303;23;20195;-74
2023/01/18 11:34:34;;;;;;;12.47;5.30;;;;;;;;;;6178295;23;20929;-73
2023/01/18 11:37:00;;;;;;;11.33;5.20;;;;;;;;;;6208413;23;20638;-72
2023/01/18 11:39:26;;;;;;;8.10;4.70;;;;;;;;;;6181065;23;20843;-72
2023/01/18 11:42:10;;;;;;;7.40;5.07;;;;;;;;;;6209380;23;20394;-72
2023/01/18 11:44:37;;;;;;;7.30;5.00;;;;;;;;;;6204896;23;20367;-73
2023/01/18 11:47:04;;;;;;;6.10;4.97;;;;;;;;;;6208830;23;20371;-73
2023/01/18 11:49:46;;;;;;;6.30;5.00;;;;;;;;;;6208933;23;20702;-73
2023/01/18 11:52:14;;;;;;;7.77;4.80;;;;;;;;;;6208141;23;20418;-73
2023/01/18 11:54:46;;;;;;;9.07;4.90;;;;;;;;;;6182228;23;20375;-73
2023/01/18 11:57:11;;;;;;;6.80;4.97;;;;;;;;;;6207926;23;20410;-74
2023/01/18 11:59:41;;;;;;;7.20;4.80;;;;;;;;;;6208148;23;20923;-73
2023/01/18 12:02:25;;;;;;;7.90;4.80;;;;;;;;;;6206347;23;20170;-72
2023/01/18 12:04:50;;;;;;;7.83;3.93;;;;;;;;;;6208070;23;20401;-73
2023/01/18 12:07:15;;;;;;;6.73;4.50;;;;;;;;;;6207041;23;20371;-73
2023/01/18 12:09:45;;;;;;;7.33;4.50;;;;;;;;;;6207652;23;20156;-72
2023/01/18 12:12:25;;;;;;;4.77;3.40;;;;;;;;;;6208930;23;20168;-73
2023/01/18 12:14:58;;;;;;;7.47;4.43;;;;;;;;;;6208702;23;20391;-73
2023/01/18 12:17:42;;;;;;;9.50;4.87;;;;;;;;;;6208428;23;20403;-73
2023/01/18 12:20:15;;;;;;;6.37;4.40;;;;;;;;;;6181374;23;20385;-73
2023/01/18 12:22:52;;;;;;;5.53;3.83;;;;;;;;;;6181195;23;20486;-74
2023/01/18 12:25:20;;;;;;;5.97;3.77;;;;;;;;;;6181074;23;20382;-73
2023/01/18 12:27:52;;;;;;;11.50;4.43;;;;;;;;;;6207153;23;20542;-72
2023/01/18 12:30:21;;;;;;;4.37;3.97;;;;;;;;;;6207732;23;20367;-73
2023/01/18 12:33:03;;;;;;;4.83;2.90;;;;;;;;;;6208791;23;20418;-72
2023/01/18 12:35:47;;;;;;;5.30;3.30;;;;;;;;;;6208467;23;20519;-73
2023/01/18 12:38:12;;;;;;;7.43;4.60;;;;;;;;;;6208180;23;20460;-73
2023/01/18 12:40:46;;;;;;;5.00;3.80;;;;;;;;;;6208717;23;20458;-73
2023/01/18 12:43:20;;;;;;;7.80;4.00;;;;;;;;;;6182012;23;20523;-74
2023/01/18 12:45:48;;;;;;;6.00;4.00;;;;;;;;;;6182572;23;20371;-74
2023/01/18 12:48:43;;;;;;;6.67;4.00;;;;;;;;;;6205244;23;20691;-74
2023/01/18 12:51:13;;;;;;;5.00;3.83;;;;;;;;;;6157790;23;20398;-73
2023/01/18 12:53:44;;;;;;;7.37;4.70;;;;;;;;;;6205207;23;20819;-74
2023/01/18 12:56:24;;;;;;;8.13;3.10;;;;;;;;;;6206473;23;20371;-73
2023/01/18 12:58:54;;;;;;;7.43;3.73;;;;;;;;;;6181364;23;20756;-73
2023/01/18 13:01:20;;;;;;;5.50;3.60;;;;;;;;;;6179391;23;20402;-73
2023/01/18 13:03:48;;;;;;;5.03;3.73;;;;;;;;;;6206198;23;20382;-73
2023/01/18 13:06:15;;;;;;;13.80;4.43;;;;;;;;;;6202657;23;20453;-74
2023/01/18 13:08:51;;;;;;;5.57;3.60;;;;;;;;;;6206417;23;20363;-74
2023/01/18 13:11:21;;;;;;;3.30;2.73;;;;;;;;;;6181583;23;20456;-72
2023/01/18 13:13:47;;;;;;;8.40;3.70;;;;;;;;;;6208588;23;20379;-73
2023/01/18 13:16:28;;;;;;;4.57;3.20;;;;;;;;;;6208646;23;20402;-73
2023/01/18 13:18:57;;;;;;;6.30;3.40;;;;;;;;;;6176551;23;21034;-73
2023/01/18 13:21:31;;;;;;;7.70;4.13;;;;;;;;;;6207294;23;20390;-72
2023/01/18 13:24:03;;;;;;;9.97;3.80;;;;;;;;;;6181287;23;20410;-74
2023/01/18 13:26:32;;;;;;;5.20;3.33;;;;;;;;;;6188622;23;20387;-74
2023/01/18 13:29:13;;;;;;;7.87;3.97;;;;;;;;;;6204962;23;20383;-73
2023/01/18 13:31:38;;;;;;;7.37;4.23;;;;;;;;;;6205211;23;20405;-73
2023/01/18 13:34:06;;;;;;;10.67;3.97;;;;;;;;;;6204065;23;20375;-73
2023/01/18 13:36:50;;;;;;;5.50;3.67;;;;;;;;;;6204895;23;20603;-73
2023/01/18 13:39:17;;;;;;;4.97;3.40;;;;;;;;;;6203338;23;20715;-73
2023/01/18 13:42:09;;;;;;;6.90;4.00;;;;;;;;;;6206735;23;20379;-73
2023/01/18 13:44:39;;;;;;;7.47;3.03;;;;;;;;;;6169242;23;20371;-72
2023/01/18 13:47:22;;;;;;;9.17;3.10;;;;;;;;;;6207967;23;20382;-73
2023/01/18 13:49:48;;;;;;;4.87;3.50;;;;;;;;;;6205385;23;20370;-73
2023/01/18 13:52:34;;;;;;;6.80;3.77;;;;;;;;;;6207620;23;20471;-72
2023/01/18 13:55:00;;;;;;;4.63;3.30;;;;;;;;;;6207522;23;20148;-73
2023/01/18 13:57:26;;;;;;;5.17;3.37;;;;;;;;;;6209439;23;20435;-73
2023/01/18 13:59:51;;;;;;;3.83;2.93;;;;;;;;;;6205331;23;21059;-73
2023/01/18 14:02:42;;;;;;;6.63;3.30;;;;;;;;;;6204782;23;20246;-72
2023/01/18 14:05:25;;;;;;;8.73;3.40;;;;;;;;;;6203545;23;20259;-73
2023/01/18 14:07:58;;;;;;;7.27;3.30;;;;;;;;;;6209604;23;20358;-73
2023/01/18 14:10:32;;;;;;;8.17;3.70;;;;;;;;;;6210244;23;20371;-73
2023/01/18 14:12:58;;;;;;;8.00;3.30;;;;;;;;;;6210431;23;20847;-73
2023/01/18 14:15:47;;;;;;;4.60;3.03;;;;;;;;;;6208242;23;20434;-72
2023/01/18 14:18:20;;;;;;;10.67;3.97;;;;;;;;;;6195687;23;20428;-72
2023/01/18 14:21:08;;;;;;;5.33;3.07;;;;;;;;;;6207755;23;20445;-73
2023/01/18 14:23:45;;;;;;;6.10;3.30;;;;;;;;;;6209505;23;20686;-74
2023/01/18 14:26:12;;;;;;;4.60;3.30;;;;;;;;;;6207526;23;20378;-72
2023/01/18 14:28:49;;;;;;;11.60;3.57;;;;;;;;;;6180847;23;20387;-73
2023/01/18 14:31:34;;;;;;;7.00;3.27;;;;;;;;;;6180989;23;20410;-73
2023/01/18 14:34:18;;;;;;;5.17;2.77;;;;;;;;;;6209289;23;20812;-73
2023/01/18 14:36:43;;;;;;;6.57;2.87;;;;;;;;;;6208048;23;20371;-74
2023/01/18 14:39:16;;;;;;;4.90;3.20;;;;;;;;;;6181047;23;20418;-72
2023/01/18 14:41:43;;;;;;;9.20;3.90;;;;;;;;;;6206464;23;20172;-73
2023/01/18 14:44:32;;;;;;;4.83;3.07;;;;;;;;;;6203124;23;20371;-73
2023/01/18 14:46:58;;;;;;;6.27;3.40;;;;;;;;;;6191933;23;20733;-73
2023/01/18 14:49:31;;;;;;;7.07;3.37;;;;;;;;;;6177871;23;20386;-73
2023/01/18 14:51:57;;;;;;;6.10;3.10;;;;;;;;;;6208567;23;20638;-73
2023/01/18 14:54:24;;;;;;;6.63;3.17;;;;;;;;;;6201998;23;20786;-73
2023/01/18 14:56:49;;;;;;;6.80;2.63;;;;;;;;;;6179853;23;20387;-73
2023/01/18 14:59:22;;;;;;;4.17;3.30;;;;;;;;;;6205626;23;20904;-73
2023/01/18 15:01:55;;;;;;;4.30;3.13;;;;;;;;;;6204404;23;20168;-72
2023/01/18 15:04:25;;;;;;;11.13;3.77;;;;;;;;;;6208882;23;20450;-73
2023/01/18 15:06:50;;;;;;;3.60;3.10;;;;;;;;;;6204594;23;20847;-72
2023/01/18 15:09:18;;;;;;;5.20;2.90;;;;;;;;;;6209646;23;20402;-73
2023/01/18 15:11:44;;;;;;;7.27;3.50;;;;;;;;;;6210843;23;20174;-74
2023/01/18 15:14:12;;;;;;;9.10;3.40;;;;;;;;;;6209886;23;20375;-74
2023/01/18 15:16:37;;;;;;;6.40;3.43;;;;;;;;;;6208812;23;20156;-72
2023/01/18 15:19:03;;;;;;;7.13;3.57;;;;;;;;;;6183079;23;20553;-73